Time;durP1;ratioP1;P1;durP2;ratioP2;P2;SDS_P1;SDS_P2;PMS_P1;PMS_P2;Temp;Humidity;BMP_temperature;BMP_pressure;BME280_temperature;BME280_humidity;BME280_pressure;Samples;Min_cycle;Max_cycle;Signal;HPM_P1;HPM_P2
2022/03/12 00:01:12;;;;;;;11.20;8.50;;;4.30;58.20;;;;;;5974147;24;20418;-67
2022/03/12 00:04:04;;;;;;;11.50;8.50;;;4.40;59.00;;;;;;5975018;23;20554;-67
2022/03/12 00:06:52;;;;;;;10.20;8.13;;;4.30;58.20;;;;;;5971561;24;20414;-66
2022/03/12 00:09:40;;;;;;;10.73;8.40;;;4.20;58.50;;;;;;5985403;23;20469;-66
2022/03/12 00:12:34;;;;;;;10.37;9.00;;;4.20;58.90;;;;;;5979733;23;20473;-67
2022/03/12 00:15:23;;;;;;;13.30;9.20;;;4.10;58.50;;;;;;5979989;23;20785;-67
2022/03/12 00:18:11;;;;;;;11.87;8.90;;;4.10;59.10;;;;;;5974038;24;20503;-67
2022/03/12 00:21:01;;;;;;;13.53;8.03;;;4.10;59.70;;;;;;5975245;24;20826;-67
2022/03/12 00:23:50;;;;;;;10.67;9.20;;;4.10;59.30;;;;;;5973832;24;20913;-67
2022/03/12 00:26:39;;;;;;;10.33;8.23;;;4.10;59.90;;;;;;5968581;24;20788;-67
2022/03/12 00:29:28;;;;;;;10.60;8.47;;;4.10;59.70;;;;;;5972466;24;20460;-66
2022/03/12 00:32:17;;;;;;;9.53;8.50;;;4.00;59.70;;;;;;5974862;24;20738;-67
2022/03/12 00:35:08;;;;;;;10.57;8.40;;;4.00;59.50;;;;;;5974252;24;20591;-67
2022/03/12 00:37:58;;;;;;;10.63;8.93;;;4.00;60.40;;;;;;5973529;24;20482;-67
2022/03/12 00:40:46;;;;;;;10.67;9.47;;;3.90;59.90;;;;;;5975637;24;20479;-67
2022/03/12 00:43:35;;;;;;;9.53;7.90;;;3.90;60.30;;;;;;5973441;23;20470;-67
2022/03/12 00:46:23;;;;;;;12.40;8.50;;;3.80;60.10;;;;;;6004206;23;20429;-67
2022/03/12 00:49:11;;;;;;;13.47;8.43;;;3.80;60.40;;;;;;6001010;23;20450;-67
2022/03/12 00:51:59;;;;;;;9.80;7.90;;;3.80;60.70;;;;;;5997542;23;20435;-67
2022/03/12 00:54:49;;;;;;;9.73;8.00;;;3.80;61.00;;;;;;6000539;23;20764;-67
2022/03/12 00:57:38;;;;;;;12.80;9.27;;;3.80;61.00;;;;;;5999319;23;20504;-67
2022/03/12 01:00:27;;;;;;;11.93;8.97;;;3.80;61.10;;;;;;6002342;23;20506;-67
2022/03/12 01:03:15;;;;;;;10.43;8.23;;;3.70;61.20;;;;;;6001372;23;20429;-67
2022/03/12 01:06:05;;;;;;;9.53;7.40;;;3.70;61.00;;;;;;6002593;23;20453;-68
2022/03/12 01:08:53;;;;;;;13.37;8.07;;;3.70;61.40;;;;;;6003199;23;20425;-67
2022/03/12 01:11:43;;;;;;;10.73;8.07;;;3.60;60.90;;;;;;5998013;23;20941;-67
2022/03/12 01:14:31;;;;;;;10.43;8.30;;;3.60;62.10;;;;;;5989577;23;20530;-67
2022/03/12 01:17:21;;;;;;;10.80;8.00;;;3.60;61.30;;;;;;5976888;24;20423;-67
2022/03/12 01:20:10;;;;;;;11.17;8.30;;;3.60;61.40;;;;;;5974582;24;20503;-67
2022/03/12 01:22:58;;;;;;;8.70;7.77;;;3.50;61.30;;;;;;5986589;24;20719;-67
2022/03/12 01:25:47;;;;;;;9.70;7.90;;;3.50;61.40;;;;;;5972317;24;21016;-67
2022/03/12 01:28:37;;;;;;;13.20;8.23;;;3.50;61.80;;;;;;5975349;24;20411;-67
2022/03/12 01:31:25;;;;;;;9.07;7.97;;;3.50;61.60;;;;;;5973996;24;20475;-67
2022/03/12 01:34:13;;;;;;;11.97;8.13;;;3.40;61.80;;;;;;5972942;23;20465;-67
2022/03/12 01:37:01;;;;;;;10.83;8.53;;;3.50;62.20;;;;;;6003278;23;20880;-66
2022/03/12 01:39:50;;;;;;;12.13;8.03;;;3.40;62.10;;;;;;6005529;23;20791;-67
2022/03/12 01:42:38;;;;;;;9.67;8.43;;;3.40;61.80;;;;;;6003195;23;20509;-67
2022/03/12 01:45:34;;;;;;;9.80;8.40;;;3.40;60.90;;;;;;6003103;23;20449;-67
2022/03/12 01:48:22;;;;;;;9.40;7.70;;;3.40;61.70;;;;;;6001473;23;20506;-67
2022/03/12 01:51:10;;;;;;;10.10;8.53;;;3.40;61.80;;;;;;5997941;23;20787;-68
2022/03/12 01:53:58;;;;;;;10.33;8.13;;;3.40;62.00;;;;;;5995033;23;20938;-68
2022/03/12 01:56:49;;;;;;;12.80;8.00;;;3.40;61.60;;;;;;5974899;24;20999;-68
2022/03/12 01:59:38;;;;;;;10.23;8.60;;;3.40;62.60;;;;;;5975228;24;20427;-67
2022/03/12 02:02:27;;;;;;;10.10;8.17;;;3.40;61.80;;;;;;5994372;24;20776;-66
2022/03/12 02:05:19;;;;;;;9.70;7.50;;;3.30;60.80;;;;;;5994530;24;20477;-66
2022/03/12 02:08:13;;;;;;;9.80;8.40;;;3.30;61.00;;;;;;5977874;24;20418;-67
2022/03/12 02:11:02;;;;;;;10.23;8.17;;;3.30;61.70;;;;;;5969542;24;20418;-67
2022/03/12 02:13:58;;;;;;;9.77;8.03;;;3.20;61.20;;;;;;5954683;24;20457;-67
2022/03/12 02:16:49;;;;;;;10.90;7.90;;;3.20;61.70;;;;;;5976091;24;20442;-68
2022/03/12 02:19:44;;;;;;;10.63;7.73;;;3.20;61.70;;;;;;5975816;24;20483;-66
2022/03/12 02:22:34;;;;;;;10.90;7.53;;;3.20;62.10;;;;;;5974394;24;20460;-68
2022/03/12 02:25:28;;;;;;;7.57;6.73;;;3.20;61.40;;;;;;5971425;24;20481;-67
2022/03/12 02:28:20;;;;;;;11.63;8.03;;;3.20;61.20;;;;;;5976128;24;20418;-68
2022/03/12 02:31:09;;;;;;;10.73;8.00;;;3.10;61.00;;;;;;5975239;24;20529;-67
2022/03/12 02:34:01;;;;;;;9.00;8.00;;;3.10;61.50;;;;;;5970759;24;20454;-67
2022/03/12 02:36:52;;;;;;;9.30;7.93;;;3.10;61.80;;;;;;5975662;24;20463;-67
2022/03/12 02:39:40;;;;;;;11.13;8.43;;;3.10;61.60;;;;;;5975920;24;20414;-68
2022/03/12 02:42:31;;;;;;;9.60;7.90;;;3.00;62.30;;;;;;5966516;24;20518;-68
2022/03/12 02:45:23;;;;;;;11.37;8.50;;;3.10;62.50;;;;;;5954033;24;20533;-68
2022/03/12 02:48:11;;;;;;;11.03;7.80;;;3.00;63.10;;;;;;5973716;24;20558;-68
2022/03/12 02:51:04;;;;;;;12.63;8.13;;;3.00;61.80;;;;;;5974238;24;20737;-67
2022/03/12 02:53:56;;;;;;;11.77;8.43;;;3.00;62.10;;;;;;5970419;24;20450;-67
2022/03/12 02:56:44;;;;;;;9.30;7.23;;;2.90;61.60;;;;;;5975603;24;20591;-68
2022/03/12 02:59:33;;;;;;;10.07;7.60;;;2.90;61.90;;;;;;5973354;24;20423;-67
2022/03/12 03:02:28;;;;;;;10.20;8.17;;;2.90;61.70;;;;;;5972736;24;20438;-68
2022/03/12 03:05:29;;;;;;;8.97;8.03;;;2.80;61.70;;;;;;5974652;24;20470;-67
2022/03/12 03:08:21;;;;;;;14.90;8.50;;;2.90;62.80;;;;;;5969276;24;20585;-68
2022/03/12 03:11:12;;;;;;;11.77;7.83;;;2.90;62.90;;;;;;5972559;24;20490;-67
2022/03/12 03:14:01;;;;;;;10.33;7.70;;;2.90;61.90;;;;;;5973698;24;20961;-68
2022/03/12 03:16:51;;;;;;;12.20;7.67;;;2.80;62.50;;;;;;5953868;24;20423;-68
2022/03/12 03:19:44;;;;;;;9.90;7.30;;;2.80;62.00;;;;;;5973456;24;20832;-67
2022/03/12 03:22:34;;;;;;;12.07;8.23;;;2.80;62.70;;;;;;5974639;24;20447;-68
2022/03/12 03:25:25;;;;;;;9.50;7.43;;;2.80;62.40;;;;;;5948982;24;20461;-67
2022/03/12 03:28:13;;;;;;;9.20;7.40;;;2.70;62.00;;;;;;5974616;24;20490;-67
2022/03/12 03:31:02;;;;;;;9.50;7.53;;;2.70;62.40;;;;;;5984145;24;20425;-67
2022/03/12 03:33:54;;;;;;;9.23;7.67;;;2.70;61.80;;;;;;5976098;24;20457;-67
2022/03/12 03:36:43;;;;;;;11.00;7.80;;;2.60;62.40;;;;;;5974938;24;20509;-66
2022/03/12 03:39:31;;;;;;;9.90;7.57;;;2.60;63.20;;;;;;5977114;24;20530;-67
2022/03/12 03:42:21;;;;;;;10.60;6.67;;;2.60;62.30;;;;;;5977577;24;20529;-67
2022/03/12 03:45:09;;;;;;;10.23;7.80;;;2.60;63.70;;;;;;5971934;24;20506;-68
2022/03/12 03:47:58;;;;;;;9.60;7.47;;;2.60;63.00;;;;;;5970961;24;20441;-67
2022/03/12 03:50:49;;;;;;;14.00;7.70;;;2.60;62.80;;;;;;5975651;24;20476;-67
2022/03/12 03:53:38;;;;;;;8.70;7.10;;;2.60;63.00;;;;;;5979678;24;20933;-68
2022/03/12 03:56:27;;;;;;;9.13;7.30;;;2.50;63.00;;;;;;6004225;23;20617;-67
2022/03/12 03:59:15;;;;;;;9.70;7.50;;;2.50;62.30;;;;;;6006413;23;20527;-67
2022/03/12 04:02:04;;;;;;;9.27;7.50;;;2.50;62.50;;;;;;6013946;23;20976;-67
2022/03/12 04:04:53;;;;;;;7.93;7.13;;;2.50;63.10;;;;;;6007253;23;20452;-67
2022/03/12 04:07:43;;;;;;;10.23;7.13;;;2.50;64.00;;;;;;6007509;23;20449;-68
2022/03/12 04:10:31;;;;;;;11.93;8.63;;;2.50;63.90;;;;;;6006883;23;20497;-67
2022/03/12 04:13:21;;;;;;;10.40;8.20;;;2.50;63.80;;;;;;6005598;23;20489;-67
2022/03/12 04:16:10;;;;;;;11.27;7.53;;;2.40;64.40;;;;;;5977235;24;20550;-68
2022/03/12 04:18:58;;;;;;;10.40;8.07;;;2.40;66.00;;;;;;5956180;24;20415;-68
2022/03/12 04:21:47;;;;;;;9.00;8.03;;;2.40;63.80;;;;;;5977464;24;20449;-67
2022/03/12 04:24:39;;;;;;;8.93;7.30;;;2.40;64.10;;;;;;5975975;24;20466;-68
2022/03/12 04:27:27;;;;;;;9.00;7.90;;;2.40;63.40;;;;;;5955956;24;20730;-68
2022/03/12 04:30:18;;;;;;;9.83;7.60;;;2.40;64.30;;;;;;5955386;24;20529;-66
2022/03/12 04:33:08;;;;;;;10.77;7.27;;;2.30;63.60;;;;;;5975287;24;20438;-67
2022/03/12 04:35:58;;;;;;;10.40;8.07;;;2.40;64.40;;;;;;5977202;24;20533;-67
2022/03/12 04:38:48;;;;;;;8.77;7.87;;;2.30;64.30;;;;;;5977592;24;20533;-67
2022/03/12 04:41:39;;;;;;;10.53;8.37;;;2.30;64.30;;;;;;5966807;24;20802;-67
2022/03/12 04:44:28;;;;;;;9.20;7.50;;;2.30;64.10;;;;;;5970245;24;20479;-67
2022/03/12 04:47:19;;;;;;;9.07;7.63;;;2.20;65.40;;;;;;5975951;24;20906;-68
2022/03/12 04:50:08;;;;;;;10.00;8.57;;;2.20;66.20;;;;;;5983795;24;20398;-66
2022/03/12 04:52:59;;;;;;;11.23;8.90;;;2.20;65.70;;;;;;6002668;24;20454;-66
2022/03/12 04:55:48;;;;;;;8.57;7.27;;;2.20;65.90;;;;;;5975763;24;20965;-68
2022/03/12 04:58:39;;;;;;;9.60;7.30;;;2.00;65.80;;;;;;5979384;24;20414;-68
2022/03/12 05:01:28;;;;;;;10.10;7.27;;;2.00;65.90;;;;;;5976458;24;20498;-67
2022/03/12 05:04:16;;;;;;;8.47;7.40;;;2.00;67.40;;;;;;5981097;24;20449;-68
2022/03/12 05:07:07;;;;;;;10.53;6.63;;;2.00;67.20;;;;;;5977331;24;20454;-68
2022/03/12 05:09:57;;;;;;;12.00;9.50;;;2.00;66.40;;;;;;5957805;24;20442;-67
2022/03/12 05:12:48;;;;;;;9.60;7.70;;;1.90;66.50;;;;;;5975312;24;20536;-67
2022/03/12 05:15:40;;;;;;;11.00;7.70;;;1.90;66.40;;;;;;5977080;24;20902;-67
2022/03/12 05:18:30;;;;;;;9.77;7.57;;;1.90;66.20;;;;;;5977108;24;20442;-67
2022/03/12 05:21:21;;;;;;;12.50;7.90;;;1.80;66.10;;;;;;5962324;24;20510;-66
2022/03/12 05:24:10;;;;;;;9.87;7.70;;;1.80;66.20;;;;;;5982689;24;20604;-67
2022/03/12 05:26:59;;;;;;;9.50;8.10;;;1.80;66.00;;;;;;5978007;24;20550;-68
2022/03/12 05:29:48;;;;;;;11.67;8.60;;;1.80;66.80;;;;;;5979578;24;20574;-68
2022/03/12 05:32:38;;;;;;;10.40;7.63;;;1.80;66.90;;;;;;5986365;24;20434;-68
2022/03/12 05:35:27;;;;;;;12.80;8.60;;;1.80;67.00;;;;;;5975668;24;20541;-68
2022/03/12 05:38:18;;;;;;;8.90;6.80;;;1.70;66.70;;;;;;5987360;24;20415;-68
2022/03/12 05:41:10;;;;;;;10.17;7.73;;;1.70;67.40;;;;;;5968349;24;20423;-68
2022/03/12 05:43:59;;;;;;;10.40;7.87;;;1.70;66.90;;;;;;5976865;24;20450;-67
2022/03/12 05:46:48;;;;;;;11.30;7.03;;;1.70;67.50;;;;;;5986388;24;20414;-67
2022/03/12 05:49:42;;;;;;;10.30;7.27;;;1.70;67.20;;;;;;5975790;24;20442;-67
2022/03/12 05:52:30;;;;;;;8.60;7.30;;;1.70;67.90;;;;;;5971627;24;20918;-67
2022/03/12 05:55:24;;;;;;;9.67;7.50;;;1.70;67.40;;;;;;5973094;24;20586;-67
2022/03/12 05:58:15;;;;;;;11.20;7.80;;;1.70;68.30;;;;;;5974463;24;20898;-66
2022/03/12 06:01:03;;;;;;;7.57;6.80;;;1.70;67.20;;;;;;5974751;24;20423;-67
2022/03/12 06:03:53;;;;;;;8.83;7.00;;;1.60;67.00;;;;;;5968517;24;20458;-67
2022/03/12 06:06:46;;;;;;;10.83;7.50;;;1.70;68.00;;;;;;5960493;23;20502;-67
2022/03/12 06:09:37;;;;;;;7.03;6.20;;;1.70;68.00;;;;;;5977445;24;20431;-67
2022/03/12 06:12:27;;;;;;;8.37;7.23;;;1.70;68.60;;;;;;5973535;24;20550;-67
2022/03/12 06:15:17;;;;;;;9.07;7.67;;;1.70;67.40;;;;;;5977113;24;20458;-67
2022/03/12 06:18:05;;;;;;;8.80;7.43;;;1.70;67.90;;;;;;5971579;24;20888;-67
2022/03/12 06:20:53;;;;;;;11.87;8.03;;;1.70;67.10;;;;;;5973931;24;20506;-67
2022/03/12 06:23:42;;;;;;;9.43;6.93;;;1.60;68.30;;;;;;5973159;24;20482;-67
2022/03/12 06:26:35;;;;;;;11.60;7.80;;;1.70;67.70;;;;;;5973991;24;20502;-67
2022/03/12 06:29:23;;;;;;;8.33;7.37;;;1.70;67.20;;;;;;5972178;24;20445;-67
2022/03/12 06:32:14;;;;;;;8.40;6.73;;;1.70;67.70;;;;;;5970199;24;20542;-67
2022/03/12 06:35:08;;;;;;;8.67;7.10;;;1.70;66.70;;;;;;5972410;24;20493;-67
2022/03/12 06:37:56;;;;;;;8.90;7.07;;;1.80;66.30;;;;;;5963149;24;20939;-67
2022/03/12 06:40:47;;;;;;;8.97;7.30;;;1.70;65.60;;;;;;5970901;24;20425;-66
2022/03/12 06:43:42;;;;;;;9.53;6.97;;;1.70;65.40;;;;;;5950535;24;20466;-66
2022/03/12 06:46:31;;;;;;;9.20;6.90;;;1.80;65.00;;;;;;5971870;24;20415;-67
2022/03/12 06:49:20;;;;;;;9.00;6.60;;;1.80;65.30;;;;;;5982394;24;20442;-67
2022/03/12 06:52:09;;;;;;;9.23;7.40;;;1.80;65.80;;;;;;5977797;24;20462;-67
2022/03/12 06:54:58;;;;;;;8.83;7.00;;;1.90;65.60;;;;;;5962508;24;20518;-67
2022/03/12 06:57:48;;;;;;;8.37;6.27;;;1.90;65.00;;;;;;5987033;24;20442;-67
2022/03/12 07:00:37;;;;;;;8.27;7.10;;;1.90;65.10;;;;;;5995592;24;20421;-66
2022/03/12 07:03:25;;;;;;;8.10;6.87;;;2.00;65.70;;;;;;5979509;24;20449;-66
2022/03/12 07:06:13;;;;;;;7.93;6.90;;;2.00;65.10;;;;;;6015510;23;20504;-67
2022/03/12 07:09:01;;;;;;;9.40;6.80;;;2.00;64.40;;;;;;6002036;23;21006;-67
2022/03/12 07:11:50;;;;;;;9.90;7.47;;;2.10;64.90;;;;;;6009773;23;20429;-67
2022/03/12 07:14:41;;;;;;;9.70;6.67;;;2.10;64.70;;;;;;5986824;23;21237;-67
2022/03/12 07:17:29;;;;;;;8.50;7.00;;;2.10;64.40;;;;;;5995958;23;20890;-67
2022/03/12 07:20:18;;;;;;;9.13;7.50;;;2.20;64.80;;;;;;5997381;23;20854;-67
2022/03/12 07:23:06;;;;;;;7.27;6.40;;;2.20;64.10;;;;;;6000145;23;20814;-67
2022/03/12 07:25:55;;;;;;;9.33;6.87;;;2.30;64.10;;;;;;6013172;23;20485;-68
2022/03/12 07:28:44;;;;;;;8.90;6.80;;;2.40;63.80;;;;;;6014611;23;20445;-67
2022/03/12 07:31:34;;;;;;;8.03;6.87;;;2.30;63.50;;;;;;6008111;23;20493;-68
2022/03/12 07:34:22;;;;;;;9.30;7.50;;;2.40;63.60;;;;;;5997664;23;20446;-67
2022/03/12 07:37:11;;;;;;;8.67;6.80;;;2.50;63.50;;;;;;6005466;23;20540;-67
2022/03/12 07:40:00;;;;;;;9.33;6.73;;;2.50;63.90;;;;;;6001796;23;20895;-68
2022/03/12 07:42:48;;;;;;;8.70;6.93;;;2.60;64.20;;;;;;6000654;23;20466;-68
2022/03/12 07:45:36;;;;;;;8.57;6.50;;;2.80;63.70;;;;;;5996714;23;20486;-68
2022/03/12 07:48:26;;;;;;;8.30;6.90;;;3.10;63.60;;;;;;6010238;23;20426;-67
2022/03/12 07:51:27;;;;;;;11.17;7.07;;;3.20;63.10;;;;;;5987007;23;20785;-67
2022/03/12 07:54:16;;;;;;;10.13;6.87;;;3.30;63.70;;;;;;5996023;23;20469;-68
2022/03/12 07:57:04;;;;;;;9.50;6.90;;;3.30;64.30;;;;;;5991957;23;20481;-67
2022/03/12 07:59:52;;;;;;;9.10;7.30;;;3.40;63.60;;;;;;6009528;23;20441;-67
2022/03/12 08:02:41;;;;;;;8.70;7.43;;;3.40;63.10;;;;;;6001104;23;20509;-68
2022/03/12 08:05:31;;;;;;;9.47;7.10;;;3.50;63.30;;;;;;5997577;23;20528;-67
2022/03/12 08:08:19;;;;;;;9.33;6.50;;;3.50;62.60;;;;;;5998583;23;21057;-68
2022/03/12 08:11:28;;;;;;;8.80;7.10;;;3.50;61.40;;;;;;6000758;23;20417;-68
2022/03/12 08:14:17;;;;;;;8.83;6.80;;;3.60;62.50;;;;;;6003022;23;20525;-68
2022/03/12 08:17:06;;;;;;;8.07;6.73;;;3.70;62.50;;;;;;6001665;23;20441;-68
2022/03/12 08:19:55;;;;;;;7.07;6.20;;;3.80;62.00;;;;;;6003328;23;20445;-70
2022/03/12 08:22:45;;;;;;;7.47;6.67;;;3.90;61.50;;;;;;6006723;23;20477;-71
2022/03/12 08:25:34;;;;;;;8.10;7.30;;;3.90;60.10;;;;;;6002062;23;20446;-69
2022/03/12 08:28:22;;;;;;;8.57;6.20;;;4.00;61.30;;;;;;6005155;23;20489;-68
2022/03/12 08:31:11;;;;;;;6.90;6.20;;;4.10;60.60;;;;;;5991460;23;20484;-69
2022/03/12 08:33:59;;;;;;;9.00;6.17;;;4.30;61.40;;;;;;6003807;23;20505;-69
2022/03/12 08:36:47;;;;;;;7.83;6.23;;;4.40;60.00;;;;;;6004649;23;20601;-69
2022/03/12 08:39:37;;;;;;;8.60;5.73;;;4.50;59.60;;;;;;5998212;23;20521;-69
2022/03/12 08:42:25;;;;;;;7.60;6.37;;;4.60;59.30;;;;;;6011629;23;20516;-68
2022/03/12 08:45:13;;;;;;;8.30;6.23;;;4.60;58.40;;;;;;6004366;23;20453;-69
2022/03/12 08:48:02;;;;;;;8.20;5.87;;;4.70;59.20;;;;;;6014427;23;21056;-68
2022/03/12 08:50:50;;;;;;;8.17;6.13;;;4.70;58.60;;;;;;5985524;23;20512;-68
2022/03/12 08:53:39;;;;;;;7.27;6.30;;;4.70;58.30;;;;;;6005036;23;20529;-68
2022/03/12 08:56:29;;;;;;;7.67;6.50;;;4.70;58.70;;;;;;5999003;23;20428;-69
2022/03/12 08:59:17;;;;;;;7.03;6.30;;;4.80;58.60;;;;;;6007836;23;20437;-69
2022/03/12 09:02:06;;;;;;;7.97;6.47;;;4.80;58.80;;;;;;6007693;23;20442;-68
2022/03/12 09:04:54;;;;;;;7.97;6.60;;;4.80;58.50;;;;;;6008375;23;20706;-68
2022/03/12 09:07:44;;;;;;;7.27;6.13;;;4.80;59.00;;;;;;6006354;23;20445;-67
2022/03/12 09:10:32;;;;;;;7.83;6.47;;;4.90;58.90;;;;;;6005386;23;20842;-71
2022/03/12 09:13:22;;;;;;;9.23;6.40;;;4.90;59.40;;;;;;6004715;23;20541;-69
2022/03/12 09:16:10;;;;;;;7.37;6.67;;;4.90;58.20;;;;;;6006003;23;20449;-69
2022/03/12 09:18:59;;;;;;;7.07;5.83;;;4.90;57.90;;;;;;6007084;23;20455;-69
2022/03/12 09:21:47;;;;;;;9.10;6.70;;;5.00;57.50;;;;;;6004671;23;20468;-69
2022/03/12 09:24:38;;;;;;;7.27;6.30;;;5.00;58.20;;;;;;6005465;23;20465;-68
2022/03/12 09:27:26;;;;;;;6.73;5.83;;;5.00;57.90;;;;;;6006565;23;20414;-69
2022/03/12 09:30:16;;;;;;;7.97;6.40;;;5.10;58.20;;;;;;6006077;23;20761;-69
2022/03/12 09:33:05;;;;;;;9.00;6.83;;;5.20;58.20;;;;;;5998521;23;20797;-69
2022/03/12 09:35:54;;;;;;;8.07;6.37;;;5.30;58.90;;;;;;6006780;23;20458;-69
2022/03/12 09:38:43;;;;;;;9.23;6.00;;;5.40;57.90;;;;;;6006745;23;20445;-68
2022/03/12 09:41:33;;;;;;;7.87;5.83;;;5.50;57.50;;;;;;6005002;23;20481;-69
2022/03/12 09:44:21;;;;;;;10.20;6.73;;;5.60;57.90;;;;;;6004506;23;20545;-69
2022/03/12 09:47:12;;;;;;;8.20;6.50;;;5.70;58.60;;;;;;6005723;23;20413;-69
2022/03/12 09:50:00;;;;;;;6.40;5.73;;;5.80;57.90;;;;;;6001185;23;20586;-69
2022/03/12 09:52:49;;;;;;;8.00;6.80;;;5.80;57.50;;;;;;6004970;23;20453;-69
2022/03/12 09:55:39;;;;;;;6.67;5.90;;;5.90;57.40;;;;;;6004732;23;20471;-67
2022/03/12 09:58:27;;;;;;;8.20;6.43;;;6.00;57.70;;;;;;6006816;23;20509;-68
2022/03/12 10:01:15;;;;;;;15.20;7.30;;;6.10;58.90;;;;;;6009309;23;20466;-67
2022/03/12 10:04:05;;;;;;;6.77;6.07;;;6.20;57.40;;;;;;6010923;23;20678;-67
2022/03/12 10:06:53;;;;;;;8.13;7.20;;;6.30;57.60;;;;;;6013992;23;20912;-68
2022/03/12 10:09:42;;;;;;;7.63;6.33;;;6.30;57.90;;;;;;6023944;23;20509;-68
2022/03/12 10:12:30;;;;;;;7.50;6.47;;;6.40;58.10;;;;;;6010042;23;20766;-68
2022/03/12 10:15:20;;;;;;;7.90;7.17;;;6.50;57.80;;;;;;6004837;23;20485;-69
2022/03/12 10:18:09;;;;;;;8.20;6.90;;;6.70;56.50;;;;;;6003707;23;20976;-68
2022/03/12 10:20:59;;;;;;;8.73;6.90;;;6.70;59.00;;;;;;6004908;23;20477;-69
2022/03/12 10:23:47;;;;;;;8.37;6.70;;;6.80;57.20;;;;;;6002712;23;20557;-69
2022/03/12 10:26:37;;;;;;;7.47;6.53;;;6.90;57.30;;;;;;5997305;23;20504;-68
2022/03/12 10:29:26;;;;;;;8.10;6.40;;;7.00;57.40;;;;;;6004802;23;20441;-68
2022/03/12 10:32:23;;;;;;;9.00;6.60;;;7.10;58.20;;;;;;6014770;23;20521;-68
2022/03/12 10:35:12;;;;;;;7.00;6.17;;;7.20;56.80;;;;;;6000801;23;20481;-68
2022/03/12 10:38:03;;;;;;;8.40;7.50;;;7.40;56.50;;;;;;6003677;23;20532;-68
2022/03/12 10:40:57;;;;;;;10.30;7.60;;;7.60;55.80;;;;;;6002857;23;20448;-70
2022/03/12 10:43:50;;;;;;;7.30;6.30;;;7.60;56.40;;;;;;6003035;23;20564;-70
2022/03/12 10:46:41;;;;;;;8.40;7.60;;;7.80;58.60;;;;;;5996589;23;20445;-68
2022/03/12 10:49:30;;;;;;;7.40;6.70;;;8.00;56.70;;;;;;6004439;23;20855;-68
2022/03/12 10:52:19;;;;;;;6.97;6.20;;;8.20;57.90;;;;;;6003993;23;20894;-68
2022/03/12 10:55:17;;;;;;;7.70;6.20;;;8.30;56.50;;;;;;6006017;23;20520;-68
2022/03/12 10:58:08;;;;;;;7.47;6.40;;;8.30;53.90;;;;;;6003670;23;20441;-68
2022/03/12 11:00:59;;;;;;;7.40;6.53;;;8.40;55.10;;;;;;6003659;23;20441;-68
2022/03/12 11:03:48;;;;;;;10.30;7.00;;;8.50;55.60;;;;;;6003256;23;20444;-67
2022/03/12 11:06:37;;;;;;;8.53;6.40;;;8.60;54.40;;;;;;5985189;23;20425;-68
2022/03/12 11:09:33;;;;;;;8.10;6.87;;;8.80;56.70;;;;;;6004764;23;20503;-69
2022/03/12 11:12:30;;;;;;;7.33;6.63;;;8.90;55.00;;;;;;6012404;23;20461;-68
2022/03/12 11:15:19;;;;;;;8.23;6.47;;;9.10;55.80;;;;;;5998604;23;21028;-69
2022/03/12 11:18:08;;;;;;;9.40;7.00;;;9.20;54.40;;;;;;6005109;23;20453;-68
2022/03/12 11:20:57;;;;;;;8.50;6.83;;;9.30;54.10;;;;;;6001290;23;20561;-68
2022/03/12 11:23:45;;;;;;;7.17;6.47;;;9.50;54.10;;;;;;6002853;23;20532;-68
2022/03/12 11:26:45;;;;;;;7.70;6.90;;;9.50;53.20;;;;;;6003288;23;20975;-68
2022/03/12 11:29:35;;;;;;;7.13;6.43;;;9.50;52.90;;;;;;6001002;23;20811;-68
2022/03/12 11:32:24;;;;;;;7.40;6.70;;;9.60;55.40;;;;;;6002603;23;20438;-68
2022/03/12 11:35:15;;;;;;;7.43;6.73;;;9.70;53.50;;;;;;6002016;23;20516;-68
2022/03/12 11:38:12;;;;;;;9.53;7.20;;;9.80;54.10;;;;;;5989040;23;20419;-68
2022/03/12 11:41:06;;;;;;;7.80;7.00;;;10.10;54.80;;;;;;6001283;23;20457;-68
2022/03/12 11:43:54;;;;;;;9.00;8.20;;;10.30;52.50;;;;;;6002756;23;20540;-68
2022/03/12 11:46:43;;;;;;;7.80;7.10;;;10.50;54.30;;;;;;6003675;23;20871;-69
2022/03/12 11:49:32;;;;;;;7.90;7.10;;;10.50;52.00;;;;;;6002370;23;20497;-69
2022/03/12 11:52:20;;;;;;;9.53;7.30;;;10.60;51.50;;;;;;6004176;23;20540;-69
2022/03/12 11:55:18;;;;;;;7.90;7.10;;;10.70;52.20;;;;;;6003087;23;20525;-69
2022/03/12 11:58:07;;;;;;;8.37;6.43;;;10.90;51.60;;;;;;6000261;23;20546;-69
2022/03/12 12:00:55;;;;;;;8.27;7.47;;;11.00;51.50;;;;;;6003294;23;20590;-69
2022/03/12 12:03:44;;;;;;;9.17;8.27;;;11.20;51.10;;;;;;6004034;23;20449;-69
2022/03/12 12:06:33;;;;;;;9.00;7.30;;;11.20;50.00;;;;;;6005378;23;20429;-69
2022/03/12 12:09:22;;;;;;;8.37;7.57;;;11.20;50.60;;;;;;6004301;23;20965;-68
2022/03/12 12:12:12;;;;;;;7.77;7.07;;;11.40;50.60;;;;;;6004500;23;20506;-69
2022/03/12 12:15:02;;;;;;;7.70;6.90;;;11.60;51.10;;;;;;6004257;23;20722;-68
2022/03/12 12:17:51;;;;;;;7.77;7.00;;;11.90;53.20;;;;;;6002614;23;20796;-69
2022/03/12 12:20:42;;;;;;;9.87;7.80;;;12.20;51.40;;;;;;6004002;23;20445;-69
2022/03/12 12:23:30;;;;;;;8.17;7.27;;;12.40;50.00;;;;;;6004531;23;20588;-69
2022/03/12 12:26:20;;;;;;;7.87;7.17;;;12.60;50.40;;;;;;5972755;24;21128;-69
2022/03/12 12:29:08;;;;;;;7.90;7.20;;;12.80;50.40;;;;;;5985256;24;20736;-68
2022/03/12 12:32:03;;;;;;;7.40;6.70;;;13.20;49.90;;;;;;5975986;24;20482;-68
2022/03/12 12:35:01;;;;;;;8.37;7.57;;;13.60;51.20;;;;;;5970257;23;20952;-69
2022/03/12 12:37:54;;;;;;;7.63;6.83;;;13.90;46.90;;;;;;6004087;23;20608;-69
2022/03/12 12:40:47;;;;;;;7.97;7.23;;;14.60;50.50;;;;;;6014898;23;20482;-69
2022/03/12 12:43:41;;;;;;;8.37;7.47;;;15.30;47.80;;;;;;6008845;23;20524;-68
2022/03/12 12:46:30;;;;;;;8.60;7.47;;;16.20;46.00;;;;;;6007981;23;20417;-69
2022/03/12 12:49:18;;;;;;;8.13;7.30;;;17.60;46.70;;;;;;6003668;23;20437;-70
2022/03/12 12:52:07;;;;;;;7.60;6.90;;;19.50;45.70;;;;;;5997420;23;20597;-70
2022/03/12 12:54:59;;;;;;;7.87;7.10;;;21.50;41.30;;;;;;6003282;23;20476;-68
2022/03/12 12:57:48;;;;;;;7.97;7.33;;;22.40;40.70;;;;;;6003815;23;20464;-68
2022/03/12 13:00:40;;;;;;;8.00;7.40;;;22.90;38.70;;;;;;6002573;23;20525;-68
2022/03/12 13:03:44;;;;;;;8.27;7.60;;;24.10;40.00;;;;;;6002478;23;20738;-68
2022/03/12 13:06:48;;;;;;;8.13;7.53;;;24.90;38.90;;;;;;6001953;23;20520;-68
2022/03/12 13:09:55;;;;;;;7.90;7.30;;;25.70;37.90;;;;;;6003410;23;20473;-67
2022/03/12 13:12:46;;;;;;;8.13;7.53;;;25.30;34.10;;;;;;5994168;23;20528;-67
2022/03/12 13:15:39;;;;;;;8.63;8.03;;;25.10;33.70;;;;;;5978911;23;20920;-70
2022/03/12 13:18:41;;;;;;;10.00;9.20;;;25.00;34.70;;;;;;5977398;23;20464;-70
2022/03/12 13:21:33;;;;;;;10.47;9.63;;;25.60;36.40;;;;;;5971030;24;20406;-70
2022/03/12 13:24:22;;;;;;;7.50;7.00;;;26.10;35.00;;;;;;5982498;23;20799;-70
2022/03/12 13:27:18;;;;;;;8.20;7.60;;;26.40;35.20;;;;;;5975777;24;20462;-69
2022/03/12 13:30:15;;;;;;;7.93;7.13;;;26.70;34.10;;;;;;5969532;24;20721;-69
2022/03/12 13:33:06;;;;;;;8.03;7.33;;;27.00;33.60;;;;;;5974424;24;20562;-69
2022/03/12 13:35:54;;;;;;;8.40;7.80;;;27.00;33.20;;;;;;5974798;24;20876;-70
2022/03/12 13:38:44;;;;;;;8.27;7.57;;;26.70;32.70;;;;;;5975062;24;20510;-70
2022/03/12 13:41:32;;;;;;;8.80;8.20;;;26.80;32.90;;;;;;5973254;24;20654;-70
2022/03/12 13:44:22;;;;;;;8.23;7.63;;;26.50;32.50;;;;;;5965827;23;20761;-69
2022/03/12 13:47:17;;;;;;;8.10;7.40;;;26.30;35.60;;;;;;5974992;24;20645;-69
2022/03/12 13:50:07;;;;;;;8.47;7.77;;;26.40;34.00;;;;;;5976321;23;20517;-69
2022/03/12 13:52:57;;;;;;;8.53;7.77;;;26.00;35.60;;;;;;5973170;24;20438;-69
2022/03/12 13:55:45;;;;;;;8.03;7.43;;;25.90;34.10;;;;;;5976227;23;20829;-69
2022/03/12 13:58:33;;;;;;;8.27;7.67;;;25.00;33.40;;;;;;5974181;24;20422;-69
2022/03/12 14:01:34;;;;;;;8.50;7.60;;;24.10;33.30;;;;;;5974899;24;20944;-69
2022/03/12 14:04:26;;;;;;;7.90;7.20;;;22.80;32.30;;;;;;5971163;23;20965;-70
2022/03/12 14:07:34;;;;;;;8.10;7.50;;;22.10;33.20;;;;;;5975262;24;20423;-70
2022/03/12 14:10:24;;;;;;;7.90;7.30;;;21.50;32.30;;;;;;5974678;24;20503;-69
2022/03/12 14:13:12;;;;;;;7.63;7.03;;;20.60;31.90;;;;;;5986731;23;20552;-69
2022/03/12 14:16:00;;;;;;;7.70;7.03;;;20.00;33.60;;;;;;6001696;23;20533;-69
2022/03/12 14:18:49;;;;;;;8.10;7.40;;;19.80;35.30;;;;;;6002975;23;20417;-69
2022/03/12 14:21:42;;;;;;;7.80;7.10;;;19.50;33.80;;;;;;5996577;23;20525;-68
2022/03/12 14:24:32;;;;;;;7.60;7.00;;;19.10;34.70;;;;;;5988459;23;20957;-70
2022/03/12 14:27:25;;;;;;;7.10;6.50;;;18.70;34.60;;;;;;5974353;24;20921;-69
2022/03/12 14:30:13;;;;;;;7.37;6.77;;;18.00;35.60;;;;;;5974810;24;20505;-72
2022/03/12 14:33:02;;;;;;;7.63;7.03;;;17.60;34.60;;;;;;5975212;24;20446;-68
2022/03/12 14:35:50;;;;;;;7.97;7.33;;;17.00;35.20;;;;;;5974664;24;20538;-68
2022/03/12 14:38:40;;;;;;;7.90;7.10;;;16.80;36.20;;;;;;5971120;24;20475;-67
2022/03/12 14:41:28;;;;;;;9.10;7.23;;;16.40;36.80;;;;;;5972518;24;20502;-68
2022/03/12 14:44:20;;;;;;;8.13;7.43;;;16.10;35.90;;;;;;5974267;24;20446;-68
2022/03/12 14:47:10;;;;;;;8.30;7.60;;;16.00;37.00;;;;;;5975939;24;20505;-68
2022/03/12 14:49:58;;;;;;;7.70;7.00;;;15.90;36.90;;;;;;5975286;24;20869;-69
2022/03/12 14:52:48;;;;;;;8.10;7.37;;;15.80;37.00;;;;;;5976166;24;20561;-68